createdAt,value
2019-01-30T00:00:24.088Z,6.20
2019-01-30T00:02:52.287Z,5.33
2019-01-30T00:05:20.480Z,6.43
2019-01-30T00:07:48.679Z,5.97
2019-01-30T00:10:16.868Z,5.33
2019-01-30T00:12:45.064Z,5.83
2019-01-30T00:15:13.259Z,5.50
2019-01-30T00:17:41.458Z,4.97
2019-01-30T00:20:13.187Z,5.13
2019-01-30T00:22:41.392Z,5.77
2019-01-30T00:25:11.311Z,6.07
2019-01-30T00:27:39.533Z,6.53
2019-01-30T00:30:16.891Z,7.50
2019-01-30T00:32:45.087Z,6.40
2019-01-30T00:35:13.755Z,7.40
2019-01-30T00:37:41.947Z,7.30
2019-01-30T00:40:12.483Z,7.40
2019-01-30T00:42:40.682Z,6.10
2019-01-30T00:45:14.503Z,7.30
2019-01-30T00:47:42.696Z,7.17
2019-01-30T00:50:13.795Z,7.10
2019-01-30T00:52:41.995Z,8.07
2019-01-30T00:55:11.303Z,7.77
2019-01-30T00:57:39.482Z,8.80
2019-01-30T01:00:28.723Z,8.60
2019-01-30T01:02:56.907Z,5.77
2019-01-30T01:05:25.091Z,6.77
2019-01-30T01:07:53.558Z,9.40
2019-01-30T01:10:22.021Z,10.23
2019-01-30T01:12:50.180Z,9.87
2019-01-30T01:15:18.389Z,9.37
2019-01-30T01:17:46.579Z,7.90
2019-01-30T01:20:42.925Z,11.13
2019-01-30T01:23:11.120Z,10.23
2019-01-30T01:25:39.316Z,10.90
2019-01-30T01:28:07.523Z,11.33
2019-01-30T01:30:36.294Z,8.57
2019-01-30T01:33:04.491Z,11.43
2019-01-30T01:35:32.687Z,12.33
2019-01-30T01:38:00.900Z,13.00
2019-01-30T01:40:29.091Z,13.40
2019-01-30T01:42:57.291Z,11.90
2019-01-30T01:45:46.548Z,13.57
2019-01-30T01:48:14.743Z,14.30
2019-01-30T01:50:42.947Z,13.83
2019-01-30T01:53:11.160Z,14.73
2019-01-30T01:55:39.359Z,15.40
2019-01-30T01:58:07.567Z,14.73
2019-01-30T02:00:35.854Z,14.53
2019-01-30T02:03:04.052Z,14.60
2019-01-30T02:05:32.247Z,14.27
2019-01-30T02:08:00.455Z,13.47
2019-01-30T02:10:28.653Z,15.90
2019-01-30T02:12:56.864Z,15.33
2019-01-30T02:15:25.060Z,16.03
2019-01-30T02:17:53.338Z,16.83
2019-01-30T02:20:27.028Z,14.93
2019-01-30T02:22:55.215Z,14.73
2019-01-30T02:25:23.428Z,13.90
2019-01-30T02:27:51.628Z,16.13
2019-01-30T02:30:28.105Z,15.27
2019-01-30T02:32:56.288Z,15.90
2019-01-30T02:35:24.486Z,15.40
2019-01-30T02:37:52.689Z,16.33
2019-01-30T02:40:21.828Z,15.77
2019-01-30T02:42:50.029Z,16.17
2019-01-30T02:45:23.591Z,14.90
2019-01-30T02:47:51.802Z,15.57
2019-01-30T02:50:20.535Z,15.30
2019-01-30T02:52:48.811Z,15.93
2019-01-30T02:55:18.558Z,15.00
2019-01-30T02:57:46.768Z,9.40
2019-01-30T03:00:20.179Z,11.87
2019-01-30T03:02:48.392Z,14.43
2019-01-30T03:05:16.583Z,14.70
2019-01-30T03:07:44.790Z,12.37
2019-01-30T03:10:17.884Z,13.60
2019-01-30T03:12:46.175Z,15.07
2019-01-30T03:15:16.412Z,14.60
2019-01-30T03:17:44.609Z,14.47
2019-01-30T03:20:23.299Z,13.80
2019-01-30T03:22:51.500Z,13.17
2019-01-30T03:25:21.354Z,12.23
2019-01-30T03:27:49.555Z,13.90
2019-01-30T03:30:33.691Z,12.80
2019-01-30T03:33:02.013Z,9.33
2019-01-30T03:35:30.259Z,11.50
2019-01-30T03:37:58.450Z,10.97
2019-01-30T03:40:26.656Z,11.27
2019-01-30T03:42:54.847Z,8.23
2019-01-30T03:45:23.819Z,11.07
2019-01-30T03:47:52.021Z,7.37
2019-01-30T03:50:20.287Z,9.73
2019-01-30T03:52:48.475Z,11.97
2019-01-30T03:55:18.310Z,7.60
2019-01-30T03:57:46.508Z,8.90
2019-01-30T04:00:25.910Z,9.70
2019-01-30T04:02:54.379Z,10.07
2019-01-30T04:05:22.639Z,10.00
2019-01-30T04:07:50.844Z,11.03
2019-01-30T04:10:23.710Z,10.93
2019-01-30T04:12:51.984Z,8.20
2019-01-30T04:15:20.231Z,8.30
2019-01-30T04:17:48.439Z,9.80
2019-01-30T04:20:20.915Z,10.87
2019-01-30T04:22:49.120Z,10.67
2019-01-30T04:25:17.311Z,10.17
2019-01-30T04:27:45.491Z,9.43
2019-01-30T04:30:16.228Z,8.87
2019-01-30T04:32:44.419Z,10.07
2019-01-30T04:35:12.617Z,9.70
2019-01-30T04:37:40.821Z,9.03
2019-01-30T04:40:12.257Z,9.10
2019-01-30T04:42:40.436Z,9.57
2019-01-30T04:45:17.407Z,9.77
2019-01-30T04:47:45.596Z,9.27
2019-01-30T04:50:13.788Z,9.77
2019-01-30T04:52:41.985Z,9.53
2019-01-30T04:55:10.316Z,8.03
2019-01-30T04:57:38.501Z,9.73
2019-01-30T05:00:13.049Z,8.67
2019-01-30T05:02:41.234Z,9.23
2019-01-30T05:05:10.968Z,8.90
2019-01-30T05:07:39.171Z,8.73
2019-01-30T05:10:10.197Z,8.43
2019-01-30T05:12:38.383Z,7.27
2019-01-30T05:15:12.572Z,7.53
2019-01-30T05:17:40.770Z,7.90
2019-01-30T05:20:14.107Z,8.80
2019-01-30T05:22:42.307Z,9.13
2019-01-30T05:25:11.143Z,8.93
2019-01-30T05:27:39.339Z,7.47
2019-01-30T05:30:13.632Z,6.83
2019-01-30T05:32:41.822Z,7.70
2019-01-30T05:35:10.017Z,7.80
2019-01-30T05:37:38.219Z,8.03
2019-01-30T05:40:12.375Z,8.03
2019-01-30T05:42:40.580Z,8.33
2019-01-30T05:45:11.510Z,8.00
2019-01-30T05:47:39.700Z,8.37
2019-01-30T05:50:09.252Z,8.43
2019-01-30T05:52:37.435Z,8.87
2019-01-30T05:55:07.468Z,9.07
2019-01-30T05:57:35.667Z,7.70
2019-01-30T06:00:05.486Z,8.40
2019-01-30T06:02:33.695Z,8.30
2019-01-30T06:05:01.883Z,8.27
2019-01-30T06:07:30.073Z,8.90
2019-01-30T06:09:58.271Z,9.40
2019-01-30T06:12:26.560Z,7.80
2019-01-30T06:14:54.749Z,8.27
2019-01-30T06:17:22.931Z,7.77
2019-01-30T06:19:51.123Z,8.63
2019-01-30T06:22:19.327Z,7.40
2019-01-30T06:24:47.511Z,8.10
2019-01-30T06:27:16.275Z,9.27
2019-01-30T06:29:44.479Z,8.07
2019-01-30T06:32:21.728Z,7.83
2019-01-30T06:34:42.891Z,8.33
2019-01-30T06:37:11.083Z,6.67
2019-01-30T06:39:39.275Z,8.23
2019-01-30T06:42:07.488Z,7.50
2019-01-30T06:44:35.671Z,8.13
2019-01-30T06:47:03.868Z,6.10
2019-01-30T06:49:32.060Z,7.23
2019-01-30T06:52:00.260Z,8.10
2019-01-30T06:54:28.451Z,6.70
2019-01-30T06:56:56.647Z,8.20
2019-01-30T06:59:24.844Z,8.40
2019-01-30T07:01:53.033Z,8.17
2019-01-30T07:04:21.235Z,8.63
2019-01-30T07:06:49.424Z,7.97
2019-01-30T07:09:17.603Z,8.80
2019-01-30T07:11:45.818Z,8.57
2019-01-30T07:14:13.991Z,8.43
2019-01-30T07:16:42.195Z,8.13
2019-01-30T07:19:10.388Z,8.73
2019-01-30T07:21:38.583Z,8.67
2019-01-30T07:24:06.777Z,8.63
2019-01-30T07:26:34.979Z,8.87
2019-01-30T07:29:03.171Z,8.90
2019-01-30T07:31:31.357Z,9.50
2019-01-30T07:34:00.135Z,10.33
2019-01-30T07:36:28.337Z,13.37
2019-01-30T07:38:56.595Z,14.20
2019-01-30T07:41:24.794Z,12.83
2019-01-30T07:43:52.988Z,9.97
2019-01-30T07:46:21.171Z,8.97
2019-01-30T07:48:49.372Z,8.27
2019-01-30T07:51:17.568Z,7.83
2019-01-30T07:53:45.755Z,8.63
2019-01-30T07:56:13.959Z,9.03
2019-01-30T07:58:42.172Z,8.43
2019-01-30T08:01:10.360Z,9.23
2019-01-30T08:03:39.054Z,9.80
2019-01-30T08:06:07.335Z,10.00
2019-01-30T08:08:35.535Z,7.83
2019-01-30T08:11:03.731Z,10.73
2019-01-30T08:13:31.936Z,12.30
2019-01-30T08:16:00.399Z,12.23
2019-01-30T08:18:28.603Z,11.93
2019-01-30T08:20:56.799Z,8.87
2019-01-30T08:23:25.174Z,13.07
2019-01-30T08:25:53.533Z,14.53
2019-01-30T08:28:21.895Z,15.43
2019-01-30T08:30:50.408Z,13.83
2019-01-30T08:33:21.439Z,14.33
2019-01-30T08:35:48.580Z,12.97
2019-01-30T08:38:16.779Z,15.03
2019-01-30T08:40:44.979Z,14.53
2019-01-30T08:43:13.167Z,15.73
2019-01-30T08:45:41.359Z,14.30
2019-01-30T08:48:09.559Z,20.30
2019-01-30T08:50:37.764Z,22.57
2019-01-30T08:53:05.955Z,15.67
2019-01-30T08:55:34.146Z,15.57
2019-01-30T08:58:02.347Z,17.50
2019-01-30T09:00:30.609Z,18.63
2019-01-30T09:02:58.818Z,20.83
2019-01-30T09:05:27.003Z,23.03
2019-01-30T09:07:55.194Z,14.83
2019-01-30T09:10:25.336Z,14.30
2019-01-30T09:12:53.524Z,14.93
2019-01-30T09:15:23.264Z,12.70
2019-01-30T09:17:51.464Z,12.97
2019-01-30T09:20:21.399Z,15.00
2019-01-30T09:22:49.615Z,12.80
2019-01-30T09:25:23.430Z,15.93
2019-01-30T09:27:51.623Z,13.37
2019-01-30T09:30:25.152Z,14.57
2019-01-30T09:32:55.494Z,14.20
2019-01-30T09:35:23.724Z,14.27
2019-01-30T09:37:51.962Z,14.43
2019-01-30T09:40:21.702Z,14.60
2019-01-30T09:42:49.914Z,14.07
2019-01-30T09:45:20.505Z,14.87
2019-01-30T09:47:48.819Z,14.50
2019-01-30T09:50:19.422Z,14.77
2019-01-30T09:52:47.641Z,14.60
2019-01-30T09:55:16.271Z,15.03
2019-01-30T09:57:44.466Z,13.63
2019-01-30T10:00:27.204Z,14.70
2019-01-30T10:02:55.401Z,12.90
2019-01-30T10:05:23.603Z,14.60
2019-01-30T10:07:51.799Z,14.63
2019-01-30T10:10:28.803Z,13.70
2019-01-30T10:12:57.008Z,13.30
2019-01-30T10:15:28.412Z,13.50
2019-01-30T10:17:57.660Z,13.77
2019-01-30T10:20:27.678Z,12.00
2019-01-30T10:22:55.871Z,12.17
2019-01-30T10:25:24.080Z,13.07
2019-01-30T10:27:52.271Z,12.73
2019-01-30T10:30:28.665Z,11.03
2019-01-30T10:32:56.859Z,11.53
2019-01-30T10:35:25.066Z,11.90
2019-01-30T10:37:53.260Z,12.73
2019-01-30T10:40:21.923Z,12.23
2019-01-30T10:42:50.680Z,11.73
2019-01-30T10:45:18.939Z,11.90
2019-01-30T10:47:47.131Z,12.47
2019-01-30T10:50:23.412Z,11.80
2019-01-30T10:52:51.602Z,12.13
2019-01-30T10:55:22.595Z,12.63
2019-01-30T10:57:52.747Z,12.13
2019-01-30T11:00:23.740Z,12.90
2019-01-30T11:02:51.941Z,11.37
2019-01-30T11:05:20.131Z,12.17
2019-01-30T11:07:48.323Z,12.80
2019-01-30T11:10:18.462Z,12.93
2019-01-30T11:12:46.951Z,12.60
2019-01-30T11:15:17.395Z,12.87
2019-01-30T11:17:45.590Z,13.10
2019-01-30T11:20:16.032Z,13.70
2019-01-30T11:22:44.224Z,13.73
2019-01-30T11:25:15.639Z,13.87
2019-01-30T11:27:43.831Z,13.00
2019-01-30T11:30:13.967Z,14.27
2019-01-30T11:32:42.166Z,14.00
2019-01-30T11:35:10.723Z,15.27
2019-01-30T11:37:38.921Z,14.83
2019-01-30T11:40:16.231Z,14.87
2019-01-30T11:42:44.435Z,14.70
2019-01-30T11:45:21.464Z,15.63
2019-01-30T11:47:49.701Z,15.90
2019-01-30T11:50:17.932Z,15.57
2019-01-30T11:52:46.123Z,16.70
2019-01-30T11:55:16.927Z,15.53
2019-01-30T11:57:45.195Z,16.23
2019-01-30T12:00:17.927Z,17.37
2019-01-30T12:02:47.894Z,17.27
2019-01-30T12:05:17.087Z,18.23
2019-01-30T12:07:45.276Z,17.50
2019-01-30T12:10:14.595Z,17.77
2019-01-30T12:12:42.790Z,19.13
2019-01-30T12:15:22.287Z,19.57
2019-01-30T12:17:50.481Z,20.60
2019-01-30T12:20:18.684Z,20.27
2019-01-30T12:22:46.891Z,19.73
2019-01-30T12:25:19.296Z,19.10
2019-01-30T12:27:47.499Z,20.03
2019-01-30T12:30:21.066Z,20.03
2019-01-30T12:32:49.272Z,21.50
2019-01-30T12:35:17.471Z,21.53
2019-01-30T12:37:45.675Z,21.40
2019-01-30T12:40:24.954Z,21.00
2019-01-30T12:42:53.235Z,21.73
2019-01-30T12:45:26.567Z,20.67
2019-01-30T12:47:54.756Z,19.97
2019-01-30T12:50:23.035Z,21.23
2019-01-30T12:52:51.232Z,22.33
2019-01-30T12:55:19.435Z,20.37
2019-01-30T12:57:47.631Z,21.57
2019-01-30T13:00:21.557Z,21.70
2019-01-30T13:02:49.755Z,21.50
2019-01-30T13:05:18.588Z,21.40
2019-01-30T13:07:46.795Z,21.20
2019-01-30T13:10:14.995Z,22.43
2019-01-30T13:12:43.423Z,21.93
2019-01-30T13:15:14.067Z,21.27
2019-01-30T13:17:42.259Z,23.10
2019-01-30T13:20:15.146Z,23.97
2019-01-30T13:22:43.335Z,23.57
2019-01-30T13:25:12.650Z,22.60
2019-01-30T13:27:40.855Z,23.10
2019-01-30T13:30:15.252Z,25.97
2019-01-30T13:32:43.453Z,24.90
2019-01-30T13:35:11.651Z,23.70
2019-01-30T13:37:39.843Z,23.77
2019-01-30T13:40:14.334Z,22.30
2019-01-30T13:42:42.528Z,21.47
2019-01-30T13:45:11.855Z,21.30
2019-01-30T13:47:40.061Z,23.53
2019-01-30T13:50:17.060Z,22.10
2019-01-30T13:52:45.252Z,22.60
2019-01-30T13:55:13.456Z,23.87
2019-01-30T13:57:41.647Z,22.10
2019-01-30T14:00:20.979Z,20.37
2019-01-30T14:02:49.191Z,18.27
2019-01-30T14:05:17.467Z,20.70
2019-01-30T14:07:45.714Z,18.40
2019-01-30T14:10:14.205Z,21.67
2019-01-30T14:12:42.395Z,20.23
2019-01-30T14:15:14.023Z,19.67
2019-01-30T14:17:42.229Z,21.60
2019-01-30T14:20:12.766Z,21.13
2019-01-30T14:22:40.982Z,22.20
2019-01-30T14:25:11.067Z,21.80
2019-01-30T14:27:39.825Z,21.93
2019-01-30T14:30:14.375Z,20.60
2019-01-30T14:32:42.563Z,22.43
2019-01-30T14:35:11.173Z,19.60
2019-01-30T14:37:39.548Z,23.33
2019-01-30T14:40:19.256Z,24.50
2019-01-30T14:42:47.495Z,20.33
2019-01-30T14:45:17.428Z,23.37
2019-01-30T14:47:46.962Z,20.97
2019-01-30T14:50:17.307Z,22.23
2019-01-30T14:52:45.867Z,26.90
2019-01-30T14:55:14.128Z,17.67
2019-01-30T14:57:42.888Z,24.67
2019-01-30T15:00:14.568Z,26.17
2019-01-30T15:02:42.806Z,30.67
2019-01-30T15:05:21.824Z,14.57
2019-01-30T15:07:43.160Z,21.80
2019-01-30T15:10:17.320Z,25.80
2019-01-30T15:12:45.503Z,30.00
2019-01-30T15:15:19.317Z,28.77
2019-01-30T15:17:47.541Z,33.63
2019-01-30T15:20:18.499Z,28.77
2019-01-30T15:22:46.743Z,33.43
2019-01-30T15:25:16.883Z,20.03
2019-01-30T15:27:45.080Z,20.73
2019-01-30T15:30:47.280Z,24.20
2019-01-30T15:33:15.487Z,17.93
2019-01-30T15:35:43.747Z,24.33
2019-01-30T15:38:12.015Z,26.63
2019-01-30T15:40:40.219Z,33.47
2019-01-30T15:43:08.419Z,18.77
2019-01-30T15:45:36.619Z,34.83
2019-01-30T15:48:04.883Z,39.43
2019-01-30T15:50:35.329Z,34.23
2019-01-30T15:53:04.459Z,35.70
2019-01-30T15:55:32.671Z,36.97
2019-01-30T15:58:03.907Z,34.43
2019-01-30T16:00:37.783Z,37.37
2019-01-30T16:03:06.530Z,38.87
2019-01-30T16:05:44.579Z,44.40
2019-01-30T16:08:05.014Z,45.13
2019-01-30T16:10:33.287Z,44.10
2019-01-30T16:13:01.488Z,45.50
2019-01-30T16:15:38.459Z,49.00
2019-01-30T16:18:08.417Z,23.83
2019-01-30T16:20:36.607Z,18.27
2019-01-30T16:23:05.271Z,13.87
2019-01-30T16:25:33.484Z,27.10
2019-01-30T16:28:01.689Z,29.93
2019-01-30T16:30:29.891Z,31.20
2019-01-30T16:32:58.087Z,34.10
2019-01-30T16:35:29.195Z,32.30
2019-01-30T16:37:57.395Z,41.03
2019-01-30T16:40:25.600Z,33.97
2019-01-30T16:42:54.442Z,33.40
2019-01-30T16:45:30.343Z,35.77
2019-01-30T16:47:58.540Z,29.63
2019-01-30T16:50:26.751Z,29.60
2019-01-30T16:52:54.943Z,33.27
2019-01-30T16:55:23.139Z,30.80
2019-01-30T16:57:51.352Z,25.13
2019-01-30T17:00:46.853Z,31.07
2019-01-30T17:03:15.136Z,27.67
2019-01-30T17:05:43.403Z,29.80
2019-01-30T17:08:11.727Z,31.03
2019-01-30T17:10:39.887Z,31.40
2019-01-30T17:13:08.093Z,30.83
2019-01-30T17:15:40.836Z,28.50
2019-01-30T17:18:11.282Z,29.57
2019-01-30T17:20:40.795Z,27.60
2019-01-30T17:23:08.995Z,26.67
2019-01-30T17:25:37.208Z,26.80
2019-01-30T17:28:05.400Z,28.33
2019-01-30T17:30:39.749Z,27.83
2019-01-30T17:33:07.962Z,27.40
2019-01-30T17:35:37.001Z,24.70
2019-01-30T17:38:05.768Z,23.60
2019-01-30T17:40:33.980Z,23.93
2019-01-30T17:43:02.178Z,23.53
2019-01-30T17:45:30.372Z,24.27
2019-01-30T17:47:58.599Z,27.60
2019-01-30T17:50:28.435Z,30.07
2019-01-30T17:52:56.639Z,28.63
2019-01-30T17:55:26.229Z,28.87
2019-01-30T17:57:54.731Z,28.40
2019-01-30T18:00:29.769Z,27.30
2019-01-30T18:02:57.959Z,28.47
2019-01-30T18:05:26.735Z,28.50
2019-01-30T18:07:54.927Z,25.13
2019-01-30T18:10:23.127Z,29.47
2019-01-30T18:12:51.328Z,26.47
2019-01-30T18:15:19.515Z,25.90
2019-01-30T18:17:47.703Z,19.90
2019-01-30T18:20:20.512Z,26.03
2019-01-30T18:22:48.703Z,19.77
2019-01-30T18:25:36.343Z,14.07
2019-01-30T18:28:04.604Z,12.57
2019-01-30T18:30:32.787Z,9.00
2019-01-30T18:33:00.991Z,14.73
2019-01-30T18:35:29.192Z,12.27
2019-01-30T18:37:57.396Z,14.73
2019-01-30T18:40:27.532Z,11.63
2019-01-30T18:42:55.731Z,12.93
2019-01-30T18:45:25.675Z,14.37
2019-01-30T18:48:14.914Z,13.87
2019-01-30T18:50:45.693Z,16.73
2019-01-30T18:53:13.039Z,15.17
2019-01-30T18:55:41.239Z,15.53
2019-01-30T18:58:09.434Z,16.53
2019-01-30T19:00:39.572Z,19.77
2019-01-30T19:03:09.899Z,10.70
2019-01-30T19:05:38.099Z,10.90
2019-01-30T19:08:06.283Z,14.47
2019-01-30T19:10:34.488Z,10.90
2019-01-30T19:13:02.680Z,13.27
2019-01-30T19:15:31.162Z,12.67
2019-01-30T19:17:59.448Z,13.67
2019-01-30T19:20:30.627Z,9.93
2019-01-30T19:22:58.819Z,11.47
2019-01-30T19:25:27.024Z,10.33
2019-01-30T19:27:56.148Z,8.77
2019-01-30T19:30:29.279Z,12.10
2019-01-30T19:32:57.471Z,10.40
2019-01-30T19:35:25.673Z,10.00
2019-01-30T19:37:53.876Z,8.63
2019-01-30T19:40:22.075Z,10.30
2019-01-30T19:42:50.267Z,11.30
2019-01-30T19:45:23.700Z,14.07
2019-01-30T19:47:51.895Z,12.50
2019-01-30T19:50:22.692Z,19.03
2019-01-30T19:52:50.895Z,19.63
2019-01-30T19:55:19.083Z,11.40
2019-01-30T19:58:06.711Z,8.93
2019-01-30T20:00:37.555Z,11.73
2019-01-30T20:03:09.192Z,10.27
2019-01-30T20:05:37.395Z,8.47
2019-01-30T20:08:05.587Z,14.87
2019-01-30T20:10:35.528Z,8.43
2019-01-30T20:13:04.087Z,7.50
2019-01-30T20:15:32.292Z,12.57
2019-01-30T20:18:00.480Z,4.70
2019-01-30T20:20:28.684Z,12.77
2019-01-30T20:22:56.881Z,7.90
2019-01-30T20:25:30.480Z,6.37
2019-01-30T20:27:58.667Z,7.93
2019-01-30T20:30:26.856Z,7.77
2019-01-30T20:32:55.055Z,7.03
2019-01-30T20:35:23.240Z,5.03
2019-01-30T20:37:51.455Z,7.13
2019-01-30T20:40:24.243Z,6.07
2019-01-30T20:42:52.948Z,6.60
2019-01-30T20:45:40.639Z,7.17
2019-01-30T20:48:08.827Z,7.43
2019-01-30T20:50:37.020Z,7.10
2019-01-30T20:53:24.643Z,6.70
2019-01-30T20:55:52.848Z,4.87
2019-01-30T20:58:21.031Z,7.37
2019-01-30T21:00:49.236Z,5.80
2019-01-30T21:03:17.423Z,5.80
2019-01-30T21:05:45.615Z,13.00
2019-01-30T21:08:13.815Z,10.37
2019-01-30T21:10:42.006Z,9.63
2019-01-30T21:13:10.268Z,7.23
2019-01-30T21:15:57.907Z,11.13
2019-01-30T21:18:26.116Z,7.67
2019-01-30T21:20:54.299Z,8.20
2019-01-30T21:23:22.508Z,8.47
2019-01-30T21:25:50.724Z,8.00
2019-01-30T21:28:18.910Z,6.63
2019-01-30T21:30:47.128Z,8.27
2019-01-30T21:33:15.322Z,6.27
2019-01-30T21:35:43.591Z,12.40
2019-01-30T21:38:11.797Z,8.30
2019-01-30T21:40:39.988Z,4.60
2019-01-30T21:43:08.180Z,6.13
2019-01-30T21:45:36.387Z,10.73
2019-01-30T21:48:04.819Z,11.57
2019-01-30T21:50:33.023Z,9.23
2019-01-30T21:53:01.216Z,5.27
2019-01-30T21:55:29.412Z,8.33
2019-01-30T21:57:57.617Z,10.90
2019-01-30T22:00:29.479Z,11.63
2019-01-30T22:02:57.672Z,8.37
2019-01-30T22:05:25.863Z,7.30
2019-01-30T22:08:01.110Z,5.27
2019-01-30T22:10:26.575Z,5.17
2019-01-30T22:12:54.771Z,7.00
2019-01-30T22:15:22.958Z,9.43
2019-01-30T22:17:51.167Z,9.13
2019-01-30T22:20:21.294Z,9.07
2019-01-30T22:22:49.488Z,8.83
2019-01-30T22:25:20.630Z,8.80
2019-01-30T22:27:49.078Z,9.77
2019-01-30T22:30:22.610Z,10.57
2019-01-30T22:32:50.816Z,8.73
2019-01-30T22:35:19.008Z,9.27
2019-01-30T22:37:47.194Z,6.73
2019-01-30T22:40:15.675Z,8.77
2019-01-30T22:42:43.863Z,7.90
2019-01-30T22:45:17.603Z,7.60
2019-01-30T22:47:45.797Z,9.63
2019-01-30T22:50:15.531Z,5.67
2019-01-30T22:52:43.739Z,6.73
2019-01-30T22:55:14.083Z,7.80
2019-01-30T22:57:42.275Z,10.47
2019-01-30T23:00:38.487Z,8.77
2019-01-30T23:03:06.837Z,7.73
2019-01-30T23:05:43.855Z,7.30
2019-01-30T23:08:22.813Z,7.20
2019-01-30T23:11:03.048Z,5.03
2019-01-30T23:13:34.508Z,10.03
2019-01-30T23:16:19.900Z,9.03
2019-01-30T23:19:06.247Z,9.47
2019-01-30T23:21:40.684Z,9.30
2019-01-30T23:24:30.099Z,10.37
2019-01-30T23:27:04.152Z,8.07
2019-01-30T23:30:10.543Z,9.83
2019-01-30T23:32:59.819Z,11.33
2019-01-30T23:35:47.640Z,7.57
2019-01-30T23:38:34.442Z,8.67
2019-01-30T23:41:06.819Z,7.10
2019-01-30T23:43:49.887Z,6.17
2019-01-30T23:46:26.786Z,8.33
2019-01-30T23:49:13.131Z,5.20
2019-01-30T23:51:53.007Z,4.83
2019-01-30T23:54:33.513Z,8.57
2019-01-30T23:57:13.987Z,6.87
2019-01-30T23:59:51.395Z,6.93
